sensor_id;sensor_type;location;lat;lon;timestamp;P1;durP1;ratioP1;P2;durP2;ratioP2
75218;SDS011;63801;49.414;19.474;2023-05-07T00:01:50;28.00;;;17.30;;
75218;SDS011;63801;49.414;19.474;2023-05-07T00:03:50;33.05;;;18.40;;
75218;SDS011;63801;49.414;19.474;2023-05-07T00:05:50;33.22;;;18.13;;
75218;SDS011;63801;49.414;19.474;2023-05-07T00:07:52;30.73;;;17.63;;
75218;SDS011;63801;49.414;19.474;2023-05-07T00:09:53;29.83;;;18.10;;
75218;SDS011;63801;49.414;19.474;2023-05-07T00:11:53;33.72;;;19.58;;
75218;SDS011;63801;49.414;19.474;2023-05-07T00:13:53;32.17;;;18.63;;
75218;SDS011;63801;49.414;19.474;2023-05-07T00:15:54;37.58;;;18.73;;
75218;SDS011;63801;49.414;19.474;2023-05-07T00:17:55;36.97;;;20.27;;
75218;SDS011;63801;49.414;19.474;2023-05-07T00:19:55;36.17;;;19.33;;
75218;SDS011;63801;49.414;19.474;2023-05-07T00:21:55;35.90;;;19.73;;
75218;SDS011;63801;49.414;19.474;2023-05-07T00:23:56;34.70;;;19.23;;
75218;SDS011;63801;49.414;19.474;2023-05-07T00:25:57;34.67;;;19.40;;
75218;SDS011;63801;49.414;19.474;2023-05-07T00:27:57;33.60;;;19.58;;
75218;SDS011;63801;49.414;19.474;2023-05-07T00:30:02;31.33;;;18.58;;
75218;SDS011;63801;49.414;19.474;2023-05-07T00:32:03;37.50;;;20.35;;
75218;SDS011;63801;49.414;19.474;2023-05-07T00:34:03;38.65;;;20.38;;
75218;SDS011;63801;49.414;19.474;2023-05-07T00:36:04;38.22;;;19.65;;
75218;SDS011;63801;49.414;19.474;2023-05-07T00:38:04;34.28;;;19.25;;
75218;SDS011;63801;49.414;19.474;2023-05-07T00:40:05;32.97;;;19.70;;
75218;SDS011;63801;49.414;19.474;2023-05-07T00:42:07;35.20;;;18.73;;
75218;SDS011;63801;49.414;19.474;2023-05-07T00:44:08;33.00;;;18.42;;
75218;SDS011;63801;49.414;19.474;2023-05-07T00:46:08;30.73;;;17.70;;
75218;SDS011;63801;49.414;19.474;2023-05-07T00:48:10;34.58;;;18.85;;
75218;SDS011;63801;49.414;19.474;2023-05-07T00:50:10;33.67;;;17.80;;
75218;SDS011;63801;49.414;19.474;2023-05-07T00:52:15;36.78;;;19.85;;
75218;SDS011;63801;49.414;19.474;2023-05-07T00:54:17;32.95;;;18.02;;
75218;SDS011;63801;49.414;19.474;2023-05-07T00:56:17;32.88;;;17.75;;
75218;SDS011;63801;49.414;19.474;2023-05-07T00:58:18;34.72;;;18.30;;
75218;SDS011;63801;49.414;19.474;2023-05-07T01:00:19;33.42;;;18.00;;
75218;SDS011;63801;49.414;19.474;2023-05-07T01:02:21;31.92;;;17.85;;
75218;SDS011;63801;49.414;19.474;2023-05-07T01:04:21;31.42;;;17.17;;
75218;SDS011;63801;49.414;19.474;2023-05-07T01:06:22;36.72;;;17.67;;
75218;SDS011;63801;49.414;19.474;2023-05-07T01:08:24;35.53;;;18.08;;
75218;SDS011;63801;49.414;19.474;2023-05-07T01:10:26;33.15;;;17.75;;
75218;SDS011;63801;49.414;19.474;2023-05-07T01:12:30;32.42;;;18.55;;
75218;SDS011;63801;49.414;19.474;2023-05-07T01:14:31;33.17;;;17.20;;
75218;SDS011;63801;49.414;19.474;2023-05-07T01:16:32;31.65;;;18.40;;
75218;SDS011;63801;49.414;19.474;2023-05-07T01:18:33;33.17;;;18.75;;
75218;SDS011;63801;49.414;19.474;2023-05-07T01:20:33;34.53;;;18.38;;
75218;SDS011;63801;49.414;19.474;2023-05-07T01:22:34;36.58;;;18.17;;
75218;SDS011;63801;49.414;19.474;2023-05-07T01:24:38;32.90;;;18.75;;
75218;SDS011;63801;49.414;19.474;2023-05-07T01:26:39;33.70;;;18.38;;
75218;SDS011;63801;49.414;19.474;2023-05-07T01:28:39;33.63;;;17.90;;
75218;SDS011;63801;49.414;19.474;2023-05-07T01:30:40;35.63;;;18.88;;
75218;SDS011;63801;49.414;19.474;2023-05-07T01:34:45;35.47;;;18.63;;
75218;SDS011;63801;49.414;19.474;2023-05-07T01:38:48;35.72;;;18.80;;
75218;SDS011;63801;49.414;19.474;2023-05-07T01:40:49;35.75;;;18.88;;
75218;SDS011;63801;49.414;19.474;2023-05-07T01:42:50;35.00;;;19.60;;
75218;SDS011;63801;49.414;19.474;2023-05-07T01:44:51;35.60;;;19.00;;
75218;SDS011;63801;49.414;19.474;2023-05-07T01:46:51;34.13;;;18.70;;
75218;SDS011;63801;49.414;19.474;2023-05-07T01:48:53;36.47;;;20.35;;
75218;SDS011;63801;49.414;19.474;2023-05-07T01:50:53;36.85;;;19.25;;
75218;SDS011;63801;49.414;19.474;2023-05-07T01:52:55;36.72;;;19.85;;
75218;SDS011;63801;49.414;19.474;2023-05-07T01:54:55;36.90;;;20.60;;
75218;SDS011;63801;49.414;19.474;2023-05-07T01:56:56;33.40;;;17.95;;
75218;SDS011;63801;49.414;19.474;2023-05-07T01:58:57;34.90;;;18.00;;
75218;SDS011;63801;49.414;19.474;2023-05-07T02:00:57;36.50;;;19.35;;
75218;SDS011;63801;49.414;19.474;2023-05-07T02:02:57;33.05;;;18.63;;
75218;SDS011;63801;49.414;19.474;2023-05-07T02:04:58;35.25;;;19.02;;
75218;SDS011;63801;49.414;19.474;2023-05-07T02:06:59;37.65;;;20.30;;
75218;SDS011;63801;49.414;19.474;2023-05-07T02:08:59;32.30;;;17.95;;
75218;SDS011;63801;49.414;19.474;2023-05-07T02:10:59;34.97;;;18.77;;
75218;SDS011;63801;49.414;19.474;2023-05-07T02:13:00;40.00;;;20.33;;
75218;SDS011;63801;49.414;19.474;2023-05-07T02:15:01;37.13;;;18.70;;
75218;SDS011;63801;49.414;19.474;2023-05-07T02:17:02;35.97;;;19.90;;
75218;SDS011;63801;49.414;19.474;2023-05-07T02:19:02;38.92;;;19.88;;
75218;SDS011;63801;49.414;19.474;2023-05-07T02:21:03;37.38;;;19.77;;
75218;SDS011;63801;49.414;19.474;2023-05-07T02:23:03;37.95;;;19.38;;
75218;SDS011;63801;49.414;19.474;2023-05-07T02:25:04;36.10;;;20.05;;
75218;SDS011;63801;49.414;19.474;2023-05-07T02:27:04;37.58;;;20.90;;
75218;SDS011;63801;49.414;19.474;2023-05-07T02:29:05;37.70;;;19.38;;
75218;SDS011;63801;49.414;19.474;2023-05-07T02:31:05;31.15;;;17.42;;
75218;SDS011;63801;49.414;19.474;2023-05-07T02:33:05;32.38;;;17.83;;
75218;SDS011;63801;49.414;19.474;2023-05-07T02:35:08;33.25;;;17.63;;
75218;SDS011;63801;49.414;19.474;2023-05-07T02:37:08;33.10;;;17.52;;
75218;SDS011;63801;49.414;19.474;2023-05-07T02:39:08;31.80;;;17.15;;
75218;SDS011;63801;49.414;19.474;2023-05-07T02:41:09;32.50;;;17.70;;
75218;SDS011;63801;49.414;19.474;2023-05-07T02:43:09;34.35;;;18.08;;
75218;SDS011;63801;49.414;19.474;2023-05-07T02:45:09;32.40;;;17.42;;
75218;SDS011;63801;49.414;19.474;2023-05-07T02:47:10;35.53;;;18.85;;
75218;SDS011;63801;49.414;19.474;2023-05-07T02:49:12;34.00;;;17.42;;
75218;SDS011;63801;49.414;19.474;2023-05-07T02:51:13;30.42;;;17.58;;
75218;SDS011;63801;49.414;19.474;2023-05-07T02:53:14;35.13;;;18.85;;
75218;SDS011;63801;49.414;19.474;2023-05-07T02:55:14;39.88;;;21.25;;
75218;SDS011;63801;49.414;19.474;2023-05-07T02:57:15;59.13;;;29.08;;
75218;SDS011;63801;49.414;19.474;2023-05-07T02:59:15;61.05;;;29.63;;
75218;SDS011;63801;49.414;19.474;2023-05-07T03:01:15;57.60;;;28.02;;
75218;SDS011;63801;49.414;19.474;2023-05-07T03:03:16;57.67;;;27.45;;
75218;SDS011;63801;49.414;19.474;2023-05-07T03:05:16;53.30;;;27.25;;
75218;SDS011;63801;49.414;19.474;2023-05-07T03:07:17;49.13;;;25.45;;
75218;SDS011;63801;49.414;19.474;2023-05-07T03:09:18;48.45;;;23.27;;
75218;SDS011;63801;49.414;19.474;2023-05-07T03:11:18;40.45;;;20.73;;
75218;SDS011;63801;49.414;19.474;2023-05-07T03:13:18;49.85;;;23.90;;
75218;SDS011;63801;49.414;19.474;2023-05-07T03:15:19;48.10;;;23.35;;
75218;SDS011;63801;49.414;19.474;2023-05-07T03:17:20;50.78;;;24.55;;
75218;SDS011;63801;49.414;19.474;2023-05-07T03:19:22;67.38;;;30.27;;
75218;SDS011;63801;49.414;19.474;2023-05-07T03:21:22;62.65;;;29.30;;
75218;SDS011;63801;49.414;19.474;2023-05-07T03:23:22;52.20;;;24.30;;
75218;SDS011;63801;49.414;19.474;2023-05-07T03:25:23;48.67;;;23.50;;
75218;SDS011;63801;49.414;19.474;2023-05-07T03:27:23;53.63;;;25.85;;
75218;SDS011;63801;49.414;19.474;2023-05-07T03:29:23;67.50;;;29.35;;
75218;SDS011;63801;49.414;19.474;2023-05-07T03:31:24;60.72;;;28.48;;
75218;SDS011;63801;49.414;19.474;2023-05-07T03:33:24;59.30;;;27.70;;
75218;SDS011;63801;49.414;19.474;2023-05-07T03:35:25;62.08;;;28.08;;
75218;SDS011;63801;49.414;19.474;2023-05-07T03:37:25;68.43;;;30.80;;
75218;SDS011;63801;49.414;19.474;2023-05-07T03:39:25;66.40;;;29.55;;
75218;SDS011;63801;49.414;19.474;2023-05-07T03:41:26;64.30;;;28.80;;
75218;SDS011;63801;49.414;19.474;2023-05-07T03:43:26;69.78;;;29.67;;
75218;SDS011;63801;49.414;19.474;2023-05-07T03:45:27;63.53;;;30.00;;
75218;SDS011;63801;49.414;19.474;2023-05-07T03:47:27;64.10;;;29.25;;
75218;SDS011;63801;49.414;19.474;2023-05-07T03:49:27;58.45;;;28.00;;
75218;SDS011;63801;49.414;19.474;2023-05-07T03:51:28;60.60;;;29.55;;
75218;SDS011;63801;49.414;19.474;2023-05-07T03:53:28;64.88;;;29.15;;
75218;SDS011;63801;49.414;19.474;2023-05-07T03:55:28;64.90;;;28.73;;
75218;SDS011;63801;49.414;19.474;2023-05-07T03:57:29;73.63;;;31.63;;
75218;SDS011;63801;49.414;19.474;2023-05-07T03:59:29;76.50;;;33.20;;
75218;SDS011;63801;49.414;19.474;2023-05-07T04:01:30;79.72;;;32.60;;
75218;SDS011;63801;49.414;19.474;2023-05-07T04:03:30;75.68;;;32.92;;
75218;SDS011;63801;49.414;19.474;2023-05-07T04:05:30;65.50;;;28.90;;
75218;SDS011;63801;49.414;19.474;2023-05-07T04:07:31;63.95;;;28.83;;
75218;SDS011;63801;49.414;19.474;2023-05-07T04:09:31;63.15;;;28.73;;
75218;SDS011;63801;49.414;19.474;2023-05-07T04:11:31;62.75;;;28.83;;
75218;SDS011;63801;49.414;19.474;2023-05-07T04:13:32;62.17;;;27.77;;
75218;SDS011;63801;49.414;19.474;2023-05-07T04:15:32;58.05;;;27.30;;
75218;SDS011;63801;49.414;19.474;2023-05-07T04:17:32;56.40;;;27.15;;
75218;SDS011;63801;49.414;19.474;2023-05-07T04:19:33;52.80;;;26.15;;
75218;SDS011;63801;49.414;19.474;2023-05-07T04:21:33;50.35;;;25.70;;
75218;SDS011;63801;49.414;19.474;2023-05-07T04:23:34;49.33;;;25.73;;
75218;SDS011;63801;49.414;19.474;2023-05-07T04:25:34;46.30;;;23.73;;
75218;SDS011;63801;49.414;19.474;2023-05-07T04:27:35;48.58;;;24.80;;
75218;SDS011;63801;49.414;19.474;2023-05-07T04:29:35;47.97;;;24.42;;
75218;SDS011;63801;49.414;19.474;2023-05-07T04:31:36;45.42;;;24.20;;
75218;SDS011;63801;49.414;19.474;2023-05-07T04:33:36;49.28;;;24.42;;
75218;SDS011;63801;49.414;19.474;2023-05-07T04:35:36;47.17;;;24.08;;
75218;SDS011;63801;49.414;19.474;2023-05-07T04:37:37;47.60;;;24.25;;
75218;SDS011;63801;49.414;19.474;2023-05-07T04:39:37;49.72;;;25.10;;
75218;SDS011;63801;49.414;19.474;2023-05-07T04:41:38;51.58;;;26.42;;
75218;SDS011;63801;49.414;19.474;2023-05-07T04:43:38;44.10;;;24.27;;
75218;SDS011;63801;49.414;19.474;2023-05-07T04:45:38;50.50;;;25.10;;
75218;SDS011;63801;49.414;19.474;2023-05-07T04:47:41;45.03;;;23.75;;
75218;SDS011;63801;49.414;19.474;2023-05-07T04:49:41;47.72;;;24.60;;
75218;SDS011;63801;49.414;19.474;2023-05-07T04:51:42;47.20;;;25.60;;
75218;SDS011;63801;49.414;19.474;2023-05-07T04:53:42;46.67;;;24.23;;
75218;SDS011;63801;49.414;19.474;2023-05-07T04:55:43;45.45;;;23.15;;
75218;SDS011;63801;49.414;19.474;2023-05-07T04:57:45;41.22;;;21.98;;
75218;SDS011;63801;49.414;19.474;2023-05-07T04:59:45;36.75;;;20.65;;
75218;SDS011;63801;49.414;19.474;2023-05-07T05:01:45;35.17;;;19.15;;
75218;SDS011;63801;49.414;19.474;2023-05-07T05:03:46;35.17;;;20.20;;
75218;SDS011;63801;49.414;19.474;2023-05-07T05:05:46;33.38;;;18.73;;
75218;SDS011;63801;49.414;19.474;2023-05-07T05:07:49;29.88;;;18.13;;
75218;SDS011;63801;49.414;19.474;2023-05-07T05:09:51;25.15;;;14.95;;
75218;SDS011;63801;49.414;19.474;2023-05-07T05:11:51;24.30;;;14.82;;
75218;SDS011;63801;49.414;19.474;2023-05-07T05:13:52;23.58;;;14.68;;
75218;SDS011;63801;49.414;19.474;2023-05-07T05:15:52;23.20;;;14.20;;
75218;SDS011;63801;49.414;19.474;2023-05-07T05:17:52;26.00;;;15.23;;
75218;SDS011;63801;49.414;19.474;2023-05-07T05:19:53;26.05;;;16.10;;
75218;SDS011;63801;49.414;19.474;2023-05-07T05:21:53;28.02;;;16.33;;
75218;SDS011;63801;49.414;19.474;2023-05-07T05:23:53;30.15;;;16.52;;
75218;SDS011;63801;49.414;19.474;2023-05-07T05:25:57;29.30;;;15.70;;
75218;SDS011;63801;49.414;19.474;2023-05-07T05:27:57;33.20;;;18.75;;
75218;SDS011;63801;49.414;19.474;2023-05-07T05:29:57;33.53;;;17.60;;
75218;SDS011;63801;49.414;19.474;2023-05-07T05:31:58;31.00;;;16.92;;
75218;SDS011;63801;49.414;19.474;2023-05-07T05:33:58;26.27;;;15.98;;
75218;SDS011;63801;49.414;19.474;2023-05-07T05:35:58;26.92;;;15.27;;
75218;SDS011;63801;49.414;19.474;2023-05-07T05:37:59;28.42;;;15.93;;
75218;SDS011;63801;49.414;19.474;2023-05-07T05:39:59;27.25;;;14.95;;
75218;SDS011;63801;49.414;19.474;2023-05-07T05:41:59;25.73;;;15.20;;
75218;SDS011;63801;49.414;19.474;2023-05-07T05:44:00;23.83;;;13.95;;
75218;SDS011;63801;49.414;19.474;2023-05-07T05:46:00;27.70;;;14.98;;
75218;SDS011;63801;49.414;19.474;2023-05-07T05:48:01;29.48;;;16.25;;
75218;SDS011;63801;49.414;19.474;2023-05-07T05:50:01;25.88;;;14.27;;
75218;SDS011;63801;49.414;19.474;2023-05-07T05:52:01;27.17;;;14.07;;
75218;SDS011;63801;49.414;19.474;2023-05-07T05:54:02;22.85;;;13.02;;
75218;SDS011;63801;49.414;19.474;2023-05-07T05:56:02;22.10;;;13.07;;
75218;SDS011;63801;49.414;19.474;2023-05-07T05:58:03;19.35;;;11.88;;
75218;SDS011;63801;49.414;19.474;2023-05-07T06:00:03;17.90;;;10.90;;
75218;SDS011;63801;49.414;19.474;2023-05-07T06:02:04;17.13;;;9.80;;
75218;SDS011;63801;49.414;19.474;2023-05-07T06:04:05;18.00;;;10.63;;
75218;SDS011;63801;49.414;19.474;2023-05-07T06:06:05;15.18;;;10.38;;
75218;SDS011;63801;49.414;19.474;2023-05-07T06:08:06;16.02;;;9.88;;
75218;SDS011;63801;49.414;19.474;2023-05-07T06:10:06;16.77;;;9.68;;
75218;SDS011;63801;49.414;19.474;2023-05-07T06:12:07;14.65;;;9.32;;
75218;SDS011;63801;49.414;19.474;2023-05-07T06:14:07;15.95;;;9.60;;
75218;SDS011;63801;49.414;19.474;2023-05-07T06:16:07;15.55;;;9.48;;
75218;SDS011;63801;49.414;19.474;2023-05-07T06:18:08;14.65;;;9.40;;
75218;SDS011;63801;49.414;19.474;2023-05-07T06:20:08;12.93;;;7.88;;
75218;SDS011;63801;49.414;19.474;2023-05-07T06:22:09;12.27;;;8.32;;
75218;SDS011;63801;49.414;19.474;2023-05-07T06:24:09;12.43;;;8.15;;
75218;SDS011;63801;49.414;19.474;2023-05-07T06:26:10;12.75;;;8.30;;
75218;SDS011;63801;49.414;19.474;2023-05-07T06:28:10;15.20;;;9.60;;
75218;SDS011;63801;49.414;19.474;2023-05-07T06:30:11;14.35;;;8.40;;
75218;SDS011;63801;49.414;19.474;2023-05-07T06:32:15;14.13;;;8.32;;
75218;SDS011;63801;49.414;19.474;2023-05-07T06:34:16;13.43;;;8.67;;
75218;SDS011;63801;49.414;19.474;2023-05-07T06:36:17;13.70;;;9.40;;
75218;SDS011;63801;49.414;19.474;2023-05-07T06:38:17;14.13;;;9.20;;
75218;SDS011;63801;49.414;19.474;2023-05-07T06:40:17;14.80;;;9.15;;
75218;SDS011;63801;49.414;19.474;2023-05-07T06:42:18;14.27;;;9.35;;
75218;SDS011;63801;49.414;19.474;2023-05-07T06:44:18;15.00;;;8.98;;
75218;SDS011;63801;49.414;19.474;2023-05-07T06:46:18;14.30;;;9.25;;
75218;SDS011;63801;49.414;19.474;2023-05-07T06:48:19;13.05;;;8.20;;
75218;SDS011;63801;49.414;19.474;2023-05-07T06:50:26;13.10;;;8.20;;
75218;SDS011;63801;49.414;19.474;2023-05-07T06:52:26;14.70;;;8.40;;
75218;SDS011;63801;49.414;19.474;2023-05-07T06:54:26;11.88;;;7.43;;
75218;SDS011;63801;49.414;19.474;2023-05-07T06:56:27;12.77;;;8.43;;
75218;SDS011;63801;49.414;19.474;2023-05-07T06:58:27;14.40;;;8.48;;
75218;SDS011;63801;49.414;19.474;2023-05-07T07:00:27;15.15;;;9.27;;
75218;SDS011;63801;49.414;19.474;2023-05-07T07:02:27;13.82;;;8.40;;
75218;SDS011;63801;49.414;19.474;2023-05-07T07:04:28;16.58;;;9.25;;
75218;SDS011;63801;49.414;19.474;2023-05-07T07:06:28;16.27;;;9.60;;
75218;SDS011;63801;49.414;19.474;2023-05-07T07:08:29;13.80;;;8.68;;
75218;SDS011;63801;49.414;19.474;2023-05-07T07:10:30;14.63;;;8.90;;
75218;SDS011;63801;49.414;19.474;2023-05-07T07:12:30;13.85;;;8.32;;
75218;SDS011;63801;49.414;19.474;2023-05-07T07:14:30;15.02;;;8.65;;
75218;SDS011;63801;49.414;19.474;2023-05-07T07:16:31;12.05;;;7.38;;
75218;SDS011;63801;49.414;19.474;2023-05-07T07:18:31;13.10;;;7.80;;
75218;SDS011;63801;49.414;19.474;2023-05-07T07:20:31;11.98;;;7.95;;
75218;SDS011;63801;49.414;19.474;2023-05-07T07:22:32;11.13;;;7.07;;
75218;SDS011;63801;49.414;19.474;2023-05-07T07:24:32;12.65;;;7.15;;
75218;SDS011;63801;49.414;19.474;2023-05-07T07:26:33;12.15;;;7.63;;
75218;SDS011;63801;49.414;19.474;2023-05-07T07:28:33;11.52;;;7.30;;
75218;SDS011;63801;49.414;19.474;2023-05-07T07:30:33;13.57;;;7.88;;
75218;SDS011;63801;49.414;19.474;2023-05-07T07:32:34;13.88;;;8.65;;
75218;SDS011;63801;49.414;19.474;2023-05-07T07:34:34;11.63;;;7.22;;
75218;SDS011;63801;49.414;19.474;2023-05-07T07:36:35;13.02;;;8.57;;
75218;SDS011;63801;49.414;19.474;2023-05-07T07:38:35;10.40;;;7.22;;
75218;SDS011;63801;49.414;19.474;2023-05-07T07:40:35;14.18;;;7.70;;
75218;SDS011;63801;49.414;19.474;2023-05-07T07:42:36;11.07;;;7.22;;
75218;SDS011;63801;49.414;19.474;2023-05-07T07:44:36;10.52;;;6.88;;
75218;SDS011;63801;49.414;19.474;2023-05-07T07:46:36;11.40;;;7.20;;
75218;SDS011;63801;49.414;19.474;2023-05-07T07:48:37;12.05;;;7.60;;
75218;SDS011;63801;49.414;19.474;2023-05-07T07:50:37;12.40;;;7.40;;
75218;SDS011;63801;49.414;19.474;2023-05-07T07:52:38;14.55;;;7.35;;
75218;SDS011;63801;49.414;19.474;2023-05-07T07:54:38;10.50;;;6.47;;
75218;SDS011;63801;49.414;19.474;2023-05-07T07:56:39;12.10;;;6.82;;
75218;SDS011;63801;49.414;19.474;2023-05-07T07:58:39;11.82;;;7.28;;
75218;SDS011;63801;49.414;19.474;2023-05-07T08:00:39;11.13;;;7.00;;
75218;SDS011;63801;49.414;19.474;2023-05-07T08:02:40;10.52;;;7.18;;
75218;SDS011;63801;49.414;19.474;2023-05-07T08:04:40;11.15;;;7.43;;
75218;SDS011;63801;49.414;19.474;2023-05-07T08:06:41;9.95;;;6.68;;
75218;SDS011;63801;49.414;19.474;2023-05-07T08:08:42;12.10;;;7.57;;
75218;SDS011;63801;49.414;19.474;2023-05-07T08:10:43;9.82;;;6.22;;
75218;SDS011;63801;49.414;19.474;2023-05-07T08:12:43;10.98;;;7.20;;
75218;SDS011;63801;49.414;19.474;2023-05-07T08:14:44;9.57;;;6.18;;
75218;SDS011;63801;49.414;19.474;2023-05-07T08:16:44;12.07;;;6.68;;
75218;SDS011;63801;49.414;19.474;2023-05-07T08:18:45;12.55;;;6.40;;
75218;SDS011;63801;49.414;19.474;2023-05-07T08:20:45;13.07;;;7.38;;
75218;SDS011;63801;49.414;19.474;2023-05-07T08:22:47;15.88;;;8.68;;
75218;SDS011;63801;49.414;19.474;2023-05-07T08:24:47;9.70;;;5.88;;
75218;SDS011;63801;49.414;19.474;2023-05-07T08:26:47;8.63;;;5.45;;
75218;SDS011;63801;49.414;19.474;2023-05-07T08:28:48;9.35;;;5.90;;
75218;SDS011;63801;49.414;19.474;2023-05-07T08:30:48;11.48;;;6.47;;
75218;SDS011;63801;49.414;19.474;2023-05-07T08:32:48;8.25;;;5.10;;
75218;SDS011;63801;49.414;19.474;2023-05-07T08:34:48;9.75;;;5.88;;
75218;SDS011;63801;49.414;19.474;2023-05-07T08:36:49;10.45;;;5.70;;
75218;SDS011;63801;49.414;19.474;2023-05-07T08:38:49;8.73;;;5.45;;
75218;SDS011;63801;49.414;19.474;2023-05-07T08:40:50;8.50;;;5.72;;
75218;SDS011;63801;49.414;19.474;2023-05-07T08:42:50;8.50;;;5.28;;
75218;SDS011;63801;49.414;19.474;2023-05-07T08:44:52;8.55;;;5.45;;
75218;SDS011;63801;49.414;19.474;2023-05-07T08:46:57;8.18;;;5.13;;
75218;SDS011;63801;49.414;19.474;2023-05-07T08:48:59;9.00;;;5.65;;
75218;SDS011;63801;49.414;19.474;2023-05-07T08:50:59;10.18;;;6.80;;
75218;SDS011;63801;49.414;19.474;2023-05-07T08:53:00;8.02;;;5.40;;
75218;SDS011;63801;49.414;19.474;2023-05-07T08:55:01;7.43;;;5.00;;
75218;SDS011;63801;49.414;19.474;2023-05-07T08:57:02;7.53;;;5.18;;
75218;SDS011;63801;49.414;19.474;2023-05-07T08:59:03;7.47;;;4.47;;
75218;SDS011;63801;49.414;19.474;2023-05-07T09:01:06;6.43;;;4.45;;
75218;SDS011;63801;49.414;19.474;2023-05-07T09:03:08;9.98;;;5.45;;
75218;SDS011;63801;49.414;19.474;2023-05-07T09:05:12;7.18;;;5.05;;
75218;SDS011;63801;49.414;19.474;2023-05-07T09:07:12;6.88;;;4.65;;
75218;SDS011;63801;49.414;19.474;2023-05-07T09:09:16;9.23;;;5.70;;
75218;SDS011;63801;49.414;19.474;2023-05-07T09:11:21;8.15;;;5.47;;
75218;SDS011;63801;49.414;19.474;2023-05-07T09:13:22;10.13;;;5.85;;
75218;SDS011;63801;49.414;19.474;2023-05-07T09:15:23;8.98;;;5.85;;
75218;SDS011;63801;49.414;19.474;2023-05-07T09:17:23;9.02;;;5.88;;
75218;SDS011;63801;49.414;19.474;2023-05-07T09:19:24;9.95;;;6.32;;
75218;SDS011;63801;49.414;19.474;2023-05-07T09:21:24;8.73;;;6.38;;
75218;SDS011;63801;49.414;19.474;2023-05-07T09:23:25;9.25;;;6.10;;
75218;SDS011;63801;49.414;19.474;2023-05-07T09:25:29;8.70;;;6.05;;
75218;SDS011;63801;49.414;19.474;2023-05-07T09:27:31;8.93;;;5.85;;
75218;SDS011;63801;49.414;19.474;2023-05-07T09:29:31;8.70;;;5.93;;
75218;SDS011;63801;49.414;19.474;2023-05-07T09:31:41;9.18;;;5.47;;
75218;SDS011;63801;49.414;19.474;2023-05-07T09:33:41;7.28;;;5.00;;
75218;SDS011;63801;49.414;19.474;2023-05-07T09:35:41;7.60;;;5.30;;
75218;SDS011;63801;49.414;19.474;2023-05-07T09:37:42;8.75;;;5.88;;
75218;SDS011;63801;49.414;19.474;2023-05-07T09:39:43;7.53;;;5.30;;
75218;SDS011;63801;49.414;19.474;2023-05-07T09:41:48;8.13;;;5.53;;
75218;SDS011;63801;49.414;19.474;2023-05-07T09:43:53;8.52;;;4.93;;
75218;SDS011;63801;49.414;19.474;2023-05-07T09:45:54;8.25;;;5.60;;
75218;SDS011;63801;49.414;19.474;2023-05-07T09:47:55;8.02;;;5.47;;
75218;SDS011;63801;49.414;19.474;2023-05-07T09:49:56;9.48;;;5.90;;
75218;SDS011;63801;49.414;19.474;2023-05-07T09:52:00;9.65;;;5.47;;
75218;SDS011;63801;49.414;19.474;2023-05-07T09:54:01;7.47;;;5.28;;
75218;SDS011;63801;49.414;19.474;2023-05-07T09:56:03;9.60;;;5.45;;
75218;SDS011;63801;49.414;19.474;2023-05-07T09:58:05;9.50;;;5.82;;
75218;SDS011;63801;49.414;19.474;2023-05-07T10:00:06;8.63;;;6.00;;
75218;SDS011;63801;49.414;19.474;2023-05-07T10:02:09;9.82;;;5.65;;
75218;SDS011;63801;49.414;19.474;2023-05-07T10:04:13;10.43;;;6.05;;
75218;SDS011;63801;49.414;19.474;2023-05-07T10:06:14;6.40;;;4.47;;
75218;SDS011;63801;49.414;19.474;2023-05-07T10:08:14;6.15;;;4.50;;
75218;SDS011;63801;49.414;19.474;2023-05-07T10:10:17;10.48;;;5.85;;
75218;SDS011;63801;49.414;19.474;2023-05-07T10:12:20;7.43;;;4.40;;
75218;SDS011;63801;49.414;19.474;2023-05-07T10:14:21;6.30;;;4.15;;
75218;SDS011;63801;49.414;19.474;2023-05-07T10:16:22;5.78;;;3.55;;
75218;SDS011;63801;49.414;19.474;2023-05-07T10:18:23;5.63;;;3.28;;
75218;SDS011;63801;49.414;19.474;2023-05-07T10:20:29;3.90;;;2.63;;
75218;SDS011;63801;49.414;19.474;2023-05-07T10:22:32;4.82;;;2.70;;
75218;SDS011;63801;49.414;19.474;2023-05-07T10:24:38;4.15;;;2.47;;
75218;SDS011;63801;49.414;19.474;2023-05-07T10:26:40;5.25;;;1.95;;
75218;SDS011;63801;49.414;19.474;2023-05-07T10:28:46;3.05;;;2.15;;
75218;SDS011;63801;49.414;19.474;2023-05-07T10:30:58;8.65;;;4.22;;
75218;SDS011;63801;49.414;19.474;2023-05-07T10:33:17;6.40;;;2.80;;
75218;SDS011;63801;49.414;19.474;2023-05-07T10:35:29;7.72;;;4.32;;
75218;SDS011;63801;49.414;19.474;2023-05-07T10:37:32;7.32;;;3.60;;
75218;SDS011;63801;49.414;19.474;2023-05-07T10:39:34;10.98;;;5.70;;
75218;SDS011;63801;49.414;19.474;2023-05-07T10:41:34;4.45;;;2.55;;
75218;SDS011;63801;49.414;19.474;2023-05-07T10:43:41;4.85;;;2.42;;
75218;SDS011;63801;49.414;19.474;2023-05-07T10:45:42;6.13;;;3.13;;
75218;SDS011;63801;49.414;19.474;2023-05-07T10:48:05;6.50;;;3.10;;
75218;SDS011;63801;49.414;19.474;2023-05-07T10:52:15;6.20;;;3.17;;
75218;SDS011;63801;49.414;19.474;2023-05-07T10:54:20;4.25;;;2.53;;
75218;SDS011;63801;49.414;19.474;2023-05-07T10:58:25;6.68;;;4.10;;
75218;SDS011;63801;49.414;19.474;2023-05-07T11:03:04;4.43;;;2.72;;
75218;SDS011;63801;49.414;19.474;2023-05-07T11:07:29;2.83;;;1.90;;
75218;SDS011;63801;49.414;19.474;2023-05-07T11:09:53;3.20;;;2.10;;
75218;SDS011;63801;49.414;19.474;2023-05-07T11:12:01;4.53;;;2.20;;
75218;SDS011;63801;49.414;19.474;2023-05-07T11:14:04;5.20;;;2.70;;
75218;SDS011;63801;49.414;19.474;2023-05-07T11:16:05;4.07;;;1.98;;
75218;SDS011;63801;49.414;19.474;2023-05-07T11:18:17;7.82;;;4.35;;
75218;SDS011;63801;49.414;19.474;2023-05-07T11:20:18;10.88;;;5.97;;
75218;SDS011;63801;49.414;19.474;2023-05-07T11:24:31;4.68;;;2.70;;
75218;SDS011;63801;49.414;19.474;2023-05-07T11:26:43;18.10;;;8.63;;
75218;SDS011;63801;49.414;19.474;2023-05-07T11:28:50;9.00;;;4.95;;
75218;SDS011;63801;49.414;19.474;2023-05-07T11:30:51;20.95;;;10.00;;
75218;SDS011;63801;49.414;19.474;2023-05-07T11:32:52;6.55;;;3.78;;
75218;SDS011;63801;49.414;19.474;2023-05-07T11:34:56;8.18;;;4.05;;
75218;SDS011;63801;49.414;19.474;2023-05-07T11:36:58;5.93;;;3.05;;
75218;SDS011;63801;49.414;19.474;2023-05-07T11:38:58;5.85;;;3.40;;
75218;SDS011;63801;49.414;19.474;2023-05-07T11:40:59;38.95;;;16.10;;
75218;SDS011;63801;49.414;19.474;2023-05-07T11:43:10;13.93;;;8.07;;
75218;SDS011;63801;49.414;19.474;2023-05-07T11:45:11;5.15;;;2.58;;
75218;SDS011;63801;49.414;19.474;2023-05-07T11:47:11;6.18;;;3.83;;
75218;SDS011;63801;49.414;19.474;2023-05-07T11:49:17;4.50;;;2.58;;
75218;SDS011;63801;49.414;19.474;2023-05-07T11:51:19;4.05;;;2.30;;
75218;SDS011;63801;49.414;19.474;2023-05-07T11:53:22;3.95;;;2.30;;
75218;SDS011;63801;49.414;19.474;2023-05-07T11:55:25;3.90;;;2.70;;
75218;SDS011;63801;49.414;19.474;2023-05-07T11:57:26;4.18;;;2.72;;
75218;SDS011;63801;49.414;19.474;2023-05-07T11:59:27;5.75;;;3.15;;
75218;SDS011;63801;49.414;19.474;2023-05-07T12:01:27;16.42;;;7.65;;
75218;SDS011;63801;49.414;19.474;2023-05-07T12:03:28;13.60;;;6.10;;